sensor_id;sensor_type;location;lat;lon;timestamp;pressure;altitude;pressure_sealevel;temperature;humidity
13068;BME280;6600;51.362;6.686;2023-07-31T00:01:22;100700.78;;;17.55;100.00
13068;BME280;6600;51.362;6.686;2023-07-31T00:03:47;100698.91;;;17.55;100.00
13068;BME280;6600;51.362;6.686;2023-07-31T00:06:12;100702.72;;;17.54;100.00
13068;BME280;6600;51.362;6.686;2023-07-31T00:08:38;100695.19;;;17.61;100.00
13068;BME280;6600;51.362;6.686;2023-07-31T00:11:03;100699.75;;;17.56;100.00
13068;BME280;6600;51.362;6.686;2023-07-31T00:13:28;100687.56;;;17.58;100.00
13068;BME280;6600;51.362;6.686;2023-07-31T00:15:54;100698.91;;;17.55;100.00
13068;BME280;6600;51.362;6.686;2023-07-31T00:18:19;100685.44;;;17.60;100.00
13068;BME280;6600;51.362;6.686;2023-07-31T00:20:45;100694.09;;;17.57;100.00
13068;BME280;6600;51.362;6.686;2023-07-31T00:23:10;100690.72;;;17.45;100.00
13068;BME280;6600;51.362;6.686;2023-07-31T00:25:35;100695.97;;;17.57;100.00
13068;BME280;6600;51.362;6.686;2023-07-31T00:28:00;100696.31;;;17.71;100.00
13068;BME280;6600;51.362;6.686;2023-07-31T00:30:26;100697.88;;;17.56;100.00
13068;BME280;6600;51.362;6.686;2023-07-31T00:32:52;100695.78;;;17.74;100.00
13068;BME280;6600;51.362;6.686;2023-07-31T00:35:17;100694.16;;;17.73;100.00
13068;BME280;6600;51.362;6.686;2023-07-31T00:37:42;100684.41;;;17.72;100.00
13068;BME280;6600;51.362;6.686;2023-07-31T00:40:08;100692.97;;;17.58;100.00
13068;BME280;6600;51.362;6.686;2023-07-31T00:42:34;100692.44;;;17.56;100.00
13068;BME280;6600;51.362;6.686;2023-07-31T00:44:59;100691.09;;;17.59;100.00
13068;BME280;6600;51.362;6.686;2023-07-31T00:47:25;100687.75;;;17.89;100.00
13068;BME280;6600;51.362;6.686;2023-07-31T00:49:51;100692.97;;;17.58;100.00
13068;BME280;6600;51.362;6.686;2023-07-31T00:52:16;100689.84;;;17.77;100.00
13068;BME280;6600;51.362;6.686;2023-07-31T00:54:42;100691.88;;;17.54;100.00
13068;BME280;6600;51.362;6.686;2023-07-31T00:57:08;100690.22;;;17.53;100.00
13068;BME280;6600;51.362;6.686;2023-07-31T00:59:33;100687.53;;;17.53;100.00
13068;BME280;6600;51.362;6.686;2023-07-31T01:01:59;100690.38;;;17.74;100.00
13068;BME280;6600;51.362;6.686;2023-07-31T01:04:25;100681.59;;;17.56;100.00
13068;BME280;6600;51.362;6.686;2023-07-31T01:07:14;100676.28;;;17.77;100.00
13068;BME280;6600;51.362;6.686;2023-07-31T01:10:07;100673.59;;;17.77;100.00
13068;BME280;6600;51.362;6.686;2023-07-31T01:12:34;100681.13;;;17.64;100.00
13068;BME280;6600;51.362;6.686;2023-07-31T01:17:28;100676.22;;;17.61;100.00
13068;BME280;6600;51.362;6.686;2023-07-31T01:19:59;100677.38;;;17.76;100.00
13068;BME280;6600;51.362;6.686;2023-07-31T01:22:40;100674.69;;;17.81;100.00
13068;BME280;6600;51.362;6.686;2023-07-31T01:31:02;100683.81;;;17.64;100.00
13068;BME280;6600;51.362;6.686;2023-07-31T01:33:31;100685.19;;;17.67;100.00
13068;BME280;6600;51.362;6.686;2023-07-31T01:35:56;100674.63;;;17.71;100.00
13068;BME280;6600;51.362;6.686;2023-07-31T01:38:22;100676.28;;;17.72;100.00
13068;BME280;6600;51.362;6.686;2023-07-31T01:40:51;100683.31;;;17.73;100.00
13068;BME280;6600;51.362;6.686;2023-07-31T01:43:17;100665.66;;;17.60;100.00
13068;BME280;6600;51.362;6.686;2023-07-31T01:45:43;100663.75;;;17.65;100.00
13068;BME280;6600;51.362;6.686;2023-07-31T01:48:08;100668.69;;;17.69;100.00
13068;BME280;6600;51.362;6.686;2023-07-31T01:50:33;100656.41;;;17.56;100.00
13068;BME280;6600;51.362;6.686;2023-07-31T01:52:59;100659.34;;;17.54;100.00
13068;BME280;6600;51.362;6.686;2023-07-31T01:55:24;100665.09;;;17.58;100.00
13068;BME280;6600;51.362;6.686;2023-07-31T01:57:49;100651.28;;;17.59;100.00
13068;BME280;6600;51.362;6.686;2023-07-31T02:00:15;100646.38;;;17.56;100.00
13068;BME280;6600;51.362;6.686;2023-07-31T02:02:40;100660.97;;;17.55;100.00
13068;BME280;6600;51.362;6.686;2023-07-31T02:05:06;100656.69;;;17.59;100.00
13068;BME280;6600;51.362;6.686;2023-07-31T02:07:31;100655.56;;;17.55;100.00
13068;BME280;6600;51.362;6.686;2023-07-31T02:09:56;100652.94;;;17.65;100.00
13068;BME280;6600;51.362;6.686;2023-07-31T02:12:22;100659.44;;;17.70;100.00
13068;BME280;6600;51.362;6.686;2023-07-31T02:14:47;100656.09;;;17.52;100.00
13068;BME280;6600;51.362;6.686;2023-07-31T02:17:12;100654.44;;;17.51;100.00
13068;BME280;6600;51.362;6.686;2023-07-31T02:19:38;100659.84;;;17.51;100.00
13068;BME280;6600;51.362;6.686;2023-07-31T02:22:03;100653.13;;;17.54;100.00
13068;BME280;6600;51.362;6.686;2023-07-31T02:24:29;100650.13;;;17.50;100.00
13068;BME280;6600;51.362;6.686;2023-07-31T02:26:54;100645.78;;;17.49;100.00
13068;BME280;6600;51.362;6.686;2023-07-31T02:29:19;100652.84;;;17.50;100.00
13068;BME280;6600;51.362;6.686;2023-07-31T02:31:45;100644.13;;;17.48;100.00
13068;BME280;6600;51.362;6.686;2023-07-31T02:34:10;100638.00;;;17.58;100.00
13068;BME280;6600;51.362;6.686;2023-07-31T02:36:35;100630.13;;;17.56;100.00
13068;BME280;6600;51.362;6.686;2023-07-31T02:39:01;100627.63;;;17.55;100.00
13068;BME280;6600;51.362;6.686;2023-07-31T02:41:26;100626.03;;;17.54;100.00
13068;BME280;6600;51.362;6.686;2023-07-31T02:43:51;100632.75;;;17.51;100.00
13068;BME280;6600;51.362;6.686;2023-07-31T02:46:17;100630.63;;;17.53;100.00
13068;BME280;6600;51.362;6.686;2023-07-31T02:48:42;100622.75;;;17.47;100.00
13068;BME280;6600;51.362;6.686;2023-07-31T02:51:08;100618.69;;;17.49;100.00
13068;BME280;6600;51.362;6.686;2023-07-31T02:53:33;100619.22;;;17.51;100.00
13068;BME280;6600;51.362;6.686;2023-07-31T02:55:58;100625.22;;;17.53;100.00
13068;BME280;6600;51.362;6.686;2023-07-31T02:58:24;100617.13;;;17.58;100.00
13068;BME280;6600;51.362;6.686;2023-07-31T03:00:49;100617.44;;;17.67;100.00
13068;BME280;6600;51.362;6.686;2023-07-31T03:03:14;100618.50;;;17.61;100.00
13068;BME280;6600;51.362;6.686;2023-07-31T03:05:40;100609.00;;;17.58;100.00
13068;BME280;6600;51.362;6.686;2023-07-31T03:08:05;100616.63;;;17.61;100.00
13068;BME280;6600;51.362;6.686;2023-07-31T03:10:30;100611.19;;;17.61;100.00
13068;BME280;6600;51.362;6.686;2023-07-31T03:12:56;100610.38;;;17.66;100.00
13068;BME280;6600;51.362;6.686;2023-07-31T03:15:21;100605.25;;;17.64;100.00
13068;BME280;6600;51.362;6.686;2023-07-31T03:17:46;100613.91;;;17.66;100.00
13068;BME280;6600;51.362;6.686;2023-07-31T03:20:12;100607.44;;;17.73;100.00
13068;BME280;6600;51.362;6.686;2023-07-31T03:22:37;100611.25;;;17.72;100.00
13068;BME280;6600;51.362;6.686;2023-07-31T03:25:03;100607.72;;;17.71;100.00
13068;BME280;6600;51.362;6.686;2023-07-31T03:27:29;100614.50;;;17.74;100.00
13068;BME280;6600;51.362;6.686;2023-07-31T03:29:54;100614.50;;;17.74;100.00
13068;BME280;6600;51.362;6.686;2023-07-31T03:32:20;100614.78;;;17.77;100.00
13068;BME280;6600;51.362;6.686;2023-07-31T03:34:45;100610.19;;;17.78;100.00
13068;BME280;6600;51.362;6.686;2023-07-31T03:37:11;100612.88;;;17.83;100.00
13068;BME280;6600;51.362;6.686;2023-07-31T03:39:36;100612.38;;;17.86;100.00
13068;BME280;6600;51.362;6.686;2023-07-31T03:42:01;100606.97;;;17.86;100.00
13068;BME280;6600;51.362;6.686;2023-07-31T03:44:27;100606.44;;;17.89;100.00
13068;BME280;6600;51.362;6.686;2023-07-31T03:46:52;100605.59;;;17.88;100.00
13068;BME280;6600;51.362;6.686;2023-07-31T03:49:18;100600.47;;;17.92;100.00
13068;BME280;6600;51.362;6.686;2023-07-31T03:51:43;100601.00;;;17.89;100.00
13068;BME280;6600;51.362;6.686;2023-07-31T03:54:08;100598.84;;;17.91;100.00
13068;BME280;6600;51.362;6.686;2023-07-31T03:56:34;100592.06;;;17.93;100.00
13068;BME280;6600;51.362;6.686;2023-07-31T03:58:59;100591.78;;;17.90;100.00
13068;BME280;6600;51.362;6.686;2023-07-31T04:01:26;100595.06;;;18.02;100.00
13068;BME280;6600;51.362;6.686;2023-07-31T04:03:51;100585.59;;;17.99;100.00
13068;BME280;6600;51.362;6.686;2023-07-31T04:06:16;100590.72;;;17.96;100.00
13068;BME280;6600;51.362;6.686;2023-07-31T04:08:46;100588.00;;;18.01;100.00
13068;BME280;6600;51.362;6.686;2023-07-31T04:11:11;100577.72;;;17.98;100.00
13068;BME280;6600;51.362;6.686;2023-07-31T04:13:37;100588.81;;;17.91;100.00
13068;BME280;6600;51.362;6.686;2023-07-31T04:16:03;100581.50;;;17.97;100.00
13068;BME280;6600;51.362;6.686;2023-07-31T04:18:29;100583.13;;;17.98;100.00
13068;BME280;6600;51.362;6.686;2023-07-31T04:20:56;100585.31;;;17.96;100.00
13068;BME280;6600;51.362;6.686;2023-07-31T04:23:21;100579.34;;;17.99;100.00
13068;BME280;6600;51.362;6.686;2023-07-31T04:25:47;100571.50;;;18.12;100.00
13068;BME280;6600;51.362;6.686;2023-07-31T04:28:12;100566.34;;;18.11;100.00
13068;BME280;6600;51.362;6.686;2023-07-31T04:30:37;100571.72;;;17.91;100.00
13068;BME280;6600;51.362;6.686;2023-07-31T04:33:03;100571.25;;;18.19;100.00
13068;BME280;6600;51.362;6.686;2023-07-31T04:35:29;100576.09;;;18.17;100.00
13068;BME280;6600;51.362;6.686;2023-07-31T04:37:54;100570.16;;;18.20;100.00
13068;BME280;6600;51.362;6.686;2023-07-31T04:40:20;100565.31;;;18.27;100.00
13068;BME280;6600;51.362;6.686;2023-07-31T04:42:45;100558.78;;;18.33;100.00
13068;BME280;6600;51.362;6.686;2023-07-31T04:45:11;100560.63;;;18.07;100.00
13068;BME280;6600;51.362;6.686;2023-07-31T04:47:36;100562.00;;;18.05;100.00
13068;BME280;6600;51.362;6.686;2023-07-31T04:50:02;100548.97;;;18.07;100.00
13068;BME280;6600;51.362;6.686;2023-07-31T04:52:27;100552.25;;;18.14;100.00
13068;BME280;6600;51.362;6.686;2023-07-31T04:54:52;100548.47;;;18.10;100.00
13068;BME280;6600;51.362;6.686;2023-07-31T04:57:18;100543.03;;;18.05;100.00
13068;BME280;6600;51.362;6.686;2023-07-31T04:59:43;100545.19;;;18.08;100.00
13068;BME280;6600;51.362;6.686;2023-07-31T05:02:09;100544.09;;;18.14;100.00
13068;BME280;6600;51.362;6.686;2023-07-31T05:04:34;100534.91;;;18.10;100.00
13068;BME280;6600;51.362;6.686;2023-07-31T05:06:59;100532.19;;;18.10;100.00
13068;BME280;6600;51.362;6.686;2023-07-31T05:09:25;100528.38;;;18.21;100.00
13068;BME280;6600;51.362;6.686;2023-07-31T05:11:50;100526.78;;;18.25;100.00
13068;BME280;6600;51.362;6.686;2023-07-31T05:14:15;100519.44;;;18.21;100.00
13068;BME280;6600;51.362;6.686;2023-07-31T05:16:41;100529.22;;;18.42;100.00
13068;BME280;6600;51.362;6.686;2023-07-31T05:19:06;100518.09;;;18.38;100.00
13068;BME280;6600;51.362;6.686;2023-07-31T05:21:32;100517.03;;;18.44;100.00
13068;BME280;6600;51.362;6.686;2023-07-31T05:23:57;100525.16;;;18.44;100.00
13068;BME280;6600;51.362;6.686;2023-07-31T05:26:22;100526.78;;;18.30;100.00
13068;BME280;6600;51.362;6.686;2023-07-31T05:28:48;100525.16;;;18.49;100.00
13068;BME280;6600;51.362;6.686;2023-07-31T05:31:13;100522.72;;;18.48;100.00
13068;BME280;6600;51.362;6.686;2023-07-31T05:33:38;100518.63;;;18.45;100.00
13068;BME280;6600;51.362;6.686;2023-07-31T05:36:04;100514.84;;;18.51;100.00
13068;BME280;6600;51.362;6.686;2023-07-31T05:38:29;100519.75;;;18.54;100.00
13068;BME280;6600;51.362;6.686;2023-07-31T05:40:55;100506.16;;;18.49;100.00
13068;BME280;6600;51.362;6.686;2023-07-31T05:43:20;100498.56;;;18.56;100.00
13068;BME280;6600;51.362;6.686;2023-07-31T05:45:46;100501.84;;;18.53;100.00
13068;BME280;6600;51.362;6.686;2023-07-31T05:48:11;100498.56;;;18.56;100.00
13068;BME280;6600;51.362;6.686;2023-07-31T05:50:36;100486.91;;;18.36;100.00
13068;BME280;6600;51.362;6.686;2023-07-31T05:53:04;100496.09;;;18.45;100.00
13068;BME280;6600;51.362;6.686;2023-07-31T05:55:29;100486.06;;;18.65;100.00
13068;BME280;6600;51.362;6.686;2023-07-31T05:57:55;100485.00;;;18.72;100.00
13068;BME280;6600;51.362;6.686;2023-07-31T06:00:20;100482.25;;;18.82;100.00
13068;BME280;6600;51.362;6.686;2023-07-31T06:02:47;100476.78;;;18.87;100.00
13068;BME280;6600;51.362;6.686;2023-07-31T06:05:12;100472.78;;;18.74;100.00
13068;BME280;6600;51.362;6.686;2023-07-31T06:07:38;100482.81;;;18.63;100.00
13068;BME280;6600;51.362;6.686;2023-07-31T06:10:03;100478.50;;;18.67;100.00
13068;BME280;6600;51.362;6.686;2023-07-31T06:12:31;100483.94;;;18.52;100.00
13068;BME280;6600;51.362;6.686;2023-07-31T06:14:56;100489.63;;;18.56;100.00
13068;BME280;6600;51.362;6.686;2023-07-31T06:17:22;100500.75;;;18.64;100.00
13068;BME280;6600;51.362;6.686;2023-07-31T06:19:47;100490.44;;;18.61;100.00
13068;BME280;6600;51.362;6.686;2023-07-31T06:22:13;100493.69;;;18.53;100.00
13068;BME280;6600;51.362;6.686;2023-07-31T06:24:38;100492.03;;;18.42;100.00
13068;BME280;6600;51.362;6.686;2023-07-31T06:27:04;100490.94;;;18.48;100.00
13068;BME280;6600;51.362;6.686;2023-07-31T06:29:30;100488.25;;;18.43;100.00
13068;BME280;6600;51.362;6.686;2023-07-31T06:31:55;100494.78;;;18.47;100.00
13068;BME280;6600;51.362;6.686;2023-07-31T06:34:21;100495.31;;;18.44;100.00
13068;BME280;6600;51.362;6.686;2023-07-31T06:36:46;100488.50;;;18.42;100.00
13068;BME280;6600;51.362;6.686;2023-07-31T06:39:11;100489.09;;;18.34;100.00
13068;BME280;6600;51.362;6.686;2023-07-31T06:41:38;100483.94;;;18.27;100.00
13068;BME280;6600;51.362;6.686;2023-07-31T06:44:03;100500.44;;;18.10;100.00
13068;BME280;6600;51.362;6.686;2023-07-31T06:46:28;100500.16;;;17.97;100.00
13068;BME280;6600;51.362;6.686;2023-07-31T06:48:54;100485.28;;;18.20;100.00
13068;BME280;6600;51.362;6.686;2023-07-31T06:51:20;100498.00;;;18.24;100.00
13068;BME280;6600;51.362;6.686;2023-07-31T06:53:46;100493.16;;;18.26;100.00
13068;BME280;6600;51.362;6.686;2023-07-31T06:56:11;100493.13;;;18.36;100.00
13068;BME280;6600;51.362;6.686;2023-07-31T06:58:37;100492.59;;;18.39;100.00
13068;BME280;6600;51.362;6.686;2023-07-31T07:01:02;100483.38;;;18.40;100.00
13068;BME280;6600;51.362;6.686;2023-07-31T07:03:27;100490.97;;;18.23;100.00
13068;BME280;6600;51.362;6.686;2023-07-31T07:05:53;100486.88;;;18.00;100.00
13068;BME280;6600;51.362;6.686;2023-07-31T07:08:18;100493.13;;;18.06;100.00
13068;BME280;6600;51.362;6.686;2023-07-31T07:10:43;100485.53;;;17.98;100.00
13068;BME280;6600;51.362;6.686;2023-07-31T07:13:09;100483.06;;;17.96;100.00
13068;BME280;6600;51.362;6.686;2023-07-31T07:15:34;100480.66;;;17.95;100.00
13068;BME280;6600;51.362;6.686;2023-07-31T07:18:00;100477.94;;;18.00;100.00
13068;BME280;6600;51.362;6.686;2023-07-31T07:20:25;100470.88;;;17.94;100.00
13068;BME280;6600;51.362;6.686;2023-07-31T07:22:50;100476.06;;;17.95;100.00
13068;BME280;6600;51.362;6.686;2023-07-31T07:25:16;100467.34;;;17.93;100.00
13068;BME280;6600;51.362;6.686;2023-07-31T07:27:41;100484.44;;;17.94;100.00
13068;BME280;6600;51.362;6.686;2023-07-31T07:30:07;100470.91;;;17.99;100.00
13068;BME280;6600;51.362;6.686;2023-07-31T07:32:32;100458.69;;;17.91;100.00
13068;BME280;6600;51.362;6.686;2023-07-31T07:34:58;100471.97;;;17.88;100.00
13068;BME280;6600;51.362;6.686;2023-07-31T07:37:23;100473.06;;;17.82;100.00
13068;BME280;6600;51.362;6.686;2023-07-31T07:39:48;100469.25;;;17.88;100.00
13068;BME280;6600;51.362;6.686;2023-07-31T07:42:14;100471.16;;;17.82;100.00
13068;BME280;6600;51.362;6.686;2023-07-31T07:44:39;100468.72;;;17.86;100.00
13068;BME280;6600;51.362;6.686;2023-07-31T07:47:05;100468.16;;;17.84;100.00
13068;BME280;6600;51.362;6.686;2023-07-31T07:49:36;100468.44;;;17.82;100.00
13068;BME280;6600;51.362;6.686;2023-07-31T07:52:02;100470.88;;;17.79;100.00
13068;BME280;6600;51.362;6.686;2023-07-31T07:54:27;100466.03;;;17.86;100.00
13068;BME280;6600;51.362;6.686;2023-07-31T07:56:53;100459.75;;;17.80;100.00
13068;BME280;6600;51.362;6.686;2023-07-31T07:59:18;100462.47;;;17.90;100.00
13068;BME280;6600;51.362;6.686;2023-07-31T08:01:43;100456.78;;;17.92;100.00
13068;BME280;6600;51.362;6.686;2023-07-31T08:04:09;100460.59;;;17.96;100.00
13068;BME280;6600;51.362;6.686;2023-07-31T08:06:34;100462.19;;;17.87;100.00
13068;BME280;6600;51.362;6.686;2023-07-31T08:09:00;100450.25;;;17.83;100.00
13068;BME280;6600;51.362;6.686;2023-07-31T08:11:30;100445.13;;;17.86;100.00
13068;BME280;6600;51.362;6.686;2023-07-31T08:13:55;100445.16;;;18.06;100.00
13068;BME280;6600;51.362;6.686;2023-07-31T08:16:21;100440.25;;;18.03;100.00
13068;BME280;6600;51.362;6.686;2023-07-31T08:18:46;100439.97;;;17.90;100.00
13068;BME280;6600;51.362;6.686;2023-07-31T08:21:11;100439.69;;;17.86;100.00
13068;BME280;6600;51.362;6.686;2023-07-31T08:23:37;100435.38;;;17.80;100.00
13068;BME280;6600;51.362;6.686;2023-07-31T08:26:02;100436.19;;;17.91;100.00
13068;BME280;6600;51.362;6.686;2023-07-31T08:28:27;100431.31;;;17.78;100.00
13068;BME280;6600;51.362;6.686;2023-07-31T08:30:53;100431.84;;;17.80;100.00
13068;BME280;6600;51.362;6.686;2023-07-31T08:33:18;100438.59;;;17.72;100.00
13068;BME280;6600;51.362;6.686;2023-07-31T08:35:43;100445.94;;;17.77;100.00
13068;BME280;6600;51.362;6.686;2023-07-31T08:38:09;100435.09;;;17.77;100.00
13068;BME280;6600;51.362;6.686;2023-07-31T08:40:37;100447.03;;;17.86;100.00
13068;BME280;6600;51.362;6.686;2023-07-31T08:43:03;100436.47;;;17.84;100.00
13068;BME280;6600;51.362;6.686;2023-07-31T08:45:28;100429.41;;;17.83;100.00
13068;BME280;6600;51.362;6.686;2023-07-31T08:47:55;100427.81;;;17.92;100.00
13068;BME280;6600;51.362;6.686;2023-07-31T08:50:21;100425.34;;;17.91;100.00
13068;BME280;6600;51.362;6.686;2023-07-31T08:52:48;100427.53;;;17.99;100.00
13068;BME280;6600;51.362;6.686;2023-07-31T08:55:14;100425.06;;;17.97;100.00
13068;BME280;6600;51.362;6.686;2023-07-31T08:57:39;100425.34;;;18.01;100.00
13068;BME280;6600;51.362;6.686;2023-07-31T09:00:07;100431.31;;;18.03;100.00
13068;BME280;6600;51.362;6.686;2023-07-31T09:02:45;100436.72;;;17.93;100.00
13068;BME280;6600;51.362;6.686;2023-07-31T09:05:11;100430.22;;;17.94;100.00
13068;BME280;6600;51.362;6.686;2023-07-31T09:07:37;100436.19;;;17.96;100.00
13068;BME280;6600;51.362;6.686;2023-07-31T09:10:03;100442.69;;;18.00;100.00
13068;BME280;6600;51.362;6.686;2023-07-31T09:12:29;100433.22;;;17.92;100.00
13068;BME280;6600;51.362;6.686;2023-07-31T09:14:56;100432.69;;;17.95;100.00
13068;BME280;6600;51.362;6.686;2023-07-31T09:17:32;100439.97;;;18.00;100.00
13068;BME280;6600;51.362;6.686;2023-07-31T09:19:58;100438.91;;;18.06;100.00
13068;BME280;6600;51.362;6.686;2023-07-31T09:22:33;100428.63;;;18.13;100.00
13068;BME280;6600;51.362;6.686;2023-07-31T09:27:57;100426.44;;;18.15;100.00
13068;BME280;6600;51.362;6.686;2023-07-31T09:30:23;100428.59;;;18.08;100.00
13068;BME280;6600;51.362;6.686;2023-07-31T09:32:50;100426.44;;;18.15;100.00
13068;BME280;6600;51.362;6.686;2023-07-31T09:35:34;100413.94;;;18.29;100.00
13068;BME280;6600;51.362;6.686;2023-07-31T09:38:03;100410.16;;;18.25;100.00
13068;BME280;6600;51.362;6.686;2023-07-31T09:40:35;100401.47;;;18.33;100.00
13068;BME280;6600;51.362;6.686;2023-07-31T09:43:02;100404.47;;;18.27;100.00
13068;BME280;6600;51.362;6.686;2023-07-31T09:45:28;100406.88;;;18.28;100.00
13068;BME280;6600;51.362;6.686;2023-07-31T09:47:54;100413.41;;;18.17;100.00
13068;BME280;6600;51.362;6.686;2023-07-31T09:50:21;100406.38;;;18.16;100.00
13068;BME280;6600;51.362;6.686;2023-07-31T09:52:47;100405.81;;;18.19;100.00
13068;BME280;6600;51.362;6.686;2023-07-31T09:55:12;100406.34;;;18.26;100.00
13068;BME280;6600;51.362;6.686;2023-07-31T09:57:42;100405.28;;;18.27;100.00
13068;BME280;6600;51.362;6.686;2023-07-31T10:00:11;100404.47;;;18.27;100.00
13068;BME280;6600;51.362;6.686;2023-07-31T10:02:38;100396.06;;;18.18;100.00
13068;BME280;6600;51.362;6.686;2023-07-31T10:05:04;100402.03;;;18.20;100.00
13068;BME280;6600;51.362;6.686;2023-07-31T10:07:31;100402.28;;;18.18;100.00
13068;BME280;6600;51.362;6.686;2023-07-31T10:09:59;100412.31;;;18.18;100.00
13068;BME280;6600;51.362;6.686;2023-07-31T10:12:28;100394.41;;;18.22;100.00
13068;BME280;6600;51.362;6.686;2023-07-31T10:14:55;100400.41;;;18.19;100.00
13068;BME280;6600;51.362;6.686;2023-07-31T10:17:24;100404.16;;;18.28;100.00
13068;BME280;6600;51.362;6.686;2023-07-31T10:19:51;100404.72;;;18.15;100.00
13068;BME280;6600;51.362;6.686;2023-07-31T10:22:16;100403.09;;;18.19;100.00
13068;BME280;6600;51.362;6.686;2023-07-31T10:24:45;100397.66;;;18.34;100.00
13068;BME280;6600;51.362;6.686;2023-07-31T10:27:10;100404.72;;;18.25;100.00
13068;BME280;6600;51.362;6.686;2023-07-31T10:29:37;100402.53;;;18.37;100.00
13068;BME280;6600;51.362;6.686;2023-07-31T10:32:05;100403.06;;;18.49;100.00
13068;BME280;6600;51.362;6.686;2023-07-31T10:34:34;100403.09;;;18.54;100.00
13068;BME280;6600;51.362;6.686;2023-07-31T10:39:55;100406.81;;;18.79;100.00
13068;BME280;6600;51.362;6.686;2023-07-31T10:42:27;100400.25;;;18.80;100.00
13068;BME280;6600;51.362;6.686;2023-07-31T10:44:57;100396.41;;;18.96;100.00
13068;BME280;6600;51.362;6.686;2023-07-31T10:47:23;100395.81;;;19.04;100.00
13068;BME280;6600;51.362;6.686;2023-07-31T10:49:48;100391.47;;;19.08;100.00
13068;BME280;6600;51.362;6.686;2023-07-31T10:52:19;100383.31;;;19.13;100.00
13068;BME280;6600;51.362;6.686;2023-07-31T10:54:48;100396.59;;;19.14;100.00
13068;BME280;6600;51.362;6.686;2023-07-31T10:57:21;100391.91;;;19.25;100.00
13068;BME280;6600;51.362;6.686;2023-07-31T10:59:47;100390.28;;;19.24;100.00
13068;BME280;6600;51.362;6.686;2023-07-31T11:02:26;100381.94;;;19.15;100.00
13068;BME280;6600;51.362;6.686;2023-07-31T11:05:08;100390.91;;;19.11;100.00
13068;BME280;6600;51.362;6.686;2023-07-31T11:08:00;100388.69;;;19.23;100.00
13068;BME280;6600;51.362;6.686;2023-07-31T11:10:36;100381.66;;;19.12;100.00
13068;BME280;6600;51.362;6.686;2023-07-31T11:13:04;100378.38;;;19.20;100.00
13068;BME280;6600;51.362;6.686;2023-07-31T11:15:29;100386.47;;;19.25;100.00
13068;BME280;6600;51.362;6.686;2023-07-31T11:17:55;100391.91;;;19.25;100.00
13068;BME280;6600;51.362;6.686;2023-07-31T11:20:24;100377.19;;;19.31;100.00
13068;BME280;6600;51.362;6.686;2023-07-31T11:22:49;100392.41;;;19.32;100.00
13068;BME280;6600;51.362;6.686;2023-07-31T11:25:15;100387.50;;;19.34;100.00
13068;BME280;6600;51.362;6.686;2023-07-31T11:27:41;100388.13;;;19.26;100.00
13068;BME280;6600;51.362;6.686;2023-07-31T11:30:09;100381.63;;;19.22;100.00
13068;BME280;6600;51.362;6.686;2023-07-31T11:32:36;100377.81;;;19.23;100.00
13068;BME280;6600;51.362;6.686;2023-07-31T11:35:02;100370.22;;;19.20;100.00
13068;BME280;6600;51.362;6.686;2023-07-31T11:37:39;100374.78;;;19.25;100.00
13068;BME280;6600;51.362;6.686;2023-07-31T11:40:06;100371.31;;;19.19;100.00
13068;BME280;6600;51.362;6.686;2023-07-31T11:42:31;100378.88;;;19.27;100.00
13068;BME280;6600;51.362;6.686;2023-07-31T11:44:56;100370.44;;;19.29;100.00
13068;BME280;6600;51.362;6.686;2023-07-31T11:47:22;100382.44;;;19.23;100.00
13068;BME280;6600;51.362;6.686;2023-07-31T11:49:48;100371.81;;;19.26;100.00
13068;BME280;6600;51.362;6.686;2023-07-31T11:52:14;100368.81;;;19.28;100.00
13068;BME280;6600;51.362;6.686;2023-07-31T11:54:40;100372.97;;;19.15;100.00
13068;BME280;6600;51.362;6.686;2023-07-31T11:57:06;100366.16;;;19.17;100.00
13068;BME280;6600;51.362;6.686;2023-07-31T11:59:33;100375.16;;;19.13;100.00
13068;BME280;6600;51.362;6.686;2023-07-31T12:01:58;100366.94;;;19.23;100.00
13068;BME280;6600;51.362;6.686;2023-07-31T12:04:24;100367.50;;;19.20;100.00
13068;BME280;6600;51.362;6.686;2023-07-31T12:06:52;100377.81;;;19.23;100.00
13068;BME280;6600;51.362;6.686;2023-07-31T12:09:18;100363.13;;;19.24;100.00
13068;BME280;6600;51.362;6.686;2023-07-31T12:11:45;100373.97;;;19.24;100.00
13068;BME280;6600;51.362;6.686;2023-07-31T12:14:28;100366.38;;;19.26;100.00
13068;BME280;6600;51.362;6.686;2023-07-31T12:16:55;100364.19;;;19.28;100.00
13068;BME280;6600;51.362;6.686;2023-07-31T12:19:21;100354.38;;;19.32;100.00
13068;BME280;6600;51.362;6.686;2023-07-31T12:21:47;100354.88;;;19.39;100.00
13068;BME280;6600;51.362;6.686;2023-07-31T12:24:12;100345.72;;;19.30;100.00
13068;BME280;6600;51.362;6.686;2023-07-31T12:26:38;100349.44;;;19.39;100.00
13068;BME280;6600;51.362;6.686;2023-07-31T12:29:07;100344.56;;;19.36;100.00
13068;BME280;6600;51.362;6.686;2023-07-31T12:31:33;100336.41;;;19.41;100.00
13068;BME280;6600;51.362;6.686;2023-07-31T12:33:59;100345.41;;;19.37;100.00
13068;BME280;6600;51.362;6.686;2023-07-31T12:36:25;100346.75;;;19.44;100.00
13068;BME280;6600;51.362;6.686;2023-07-31T12:38:51;100352.19;;;19.44;100.00
13068;BME280;6600;51.362;6.686;2023-07-31T12:41:18;100347.28;;;19.36;100.00
13068;BME280;6600;51.362;6.686;2023-07-31T12:43:45;100353.22;;;19.48;100.00
13068;BME280;6600;51.362;6.686;2023-07-31T12:46:10;100349.13;;;19.51;100.00
13068;BME280;6600;51.362;6.686;2023-07-31T12:48:38;100345.09;;;19.43;100.00
13068;BME280;6600;51.362;6.686;2023-07-31T12:51:03;100340.28;;;19.30;100.00
13068;BME280;6600;51.362;6.686;2023-07-31T12:53:29;100341.31;;;19.34;100.00
13068;BME280;6600;51.362;6.686;2023-07-31T12:55:57;100336.91;;;19.48;100.00
13068;BME280;6600;51.362;6.686;2023-07-31T12:58:23;100327.00;;;19.62;100.00
13068;BME280;6600;51.362;6.686;2023-07-31T13:00:48;100331.78;;;19.76;100.00